Warsaw Chopin Airport Warsaw PL
ICAO: EPWA
IATA: WAW
Category: Large
Scheduled Services: Yes

Elevation: 362 ft
TransAlt. 6500 ft.

Airport Communications:
WARSZAWA APP:128.8
ATIS:120.45
CLNC DEL:121.6
WARSZAWA DIR:129.375
GND:121.9
TWR:118.3

EPWA Zoom In..

If you have problems with the map follow the link
https://www.worldairports.se/pages/airport.php?
ICAO=EPWA

Runways:

(A) RW 11 length 9186 ft width 164 ft
ILS 109.90 / hdg 110

(B) RW 15 length 12106 ft width 197 ft
---- / hdg 147

(C) RW 29 length 9186 ft width 164 ft
---- / hdg 290

(D) RW 33 length 12106 ft width 197 ft
ILS 110.30 / hdg 327

Location; EPWA
Day. 14 / Time. 08.30 Zulu
* QNH: 1013
* Temperature: 05° c. 41°f.
* Wind from: 240° Speed 04 kn.
Dewpoint: 03° c.
Visibility: 10 km or more.
Clouds: Scattered 1100 ft.
Clouds: Broken 1500 ft.

EPWA 140830Z 24004KT 200V270 9999 SCT011 05/03 Q1013 TEMPO BKN015


Wind From 240°
Speed 04 kn.

 
 
jpsmedia worldairports.se 2019   terms of use